Time;durP1;ratioP1;P1;durP2;ratioP2;P2;SDS_P1;SDS_P2;PMS_P1;PMS_P2;Temp;Humidity;BMP_temperature;BMP_pressure;BME280_temperature;BME280_humidity;BME280_pressure;Samples;Min_cycle;Max_cycle;Signal;HPM_P1;HPM_P2
2023/01/05 00:01:47;;;;;;;4.43;1.50;;;;;;;;;;6126605;23;20341;-77
2023/01/05 00:04:15;;;;;;;5.53;1.60;;;;;;;;;;6126354;23;20022;-77
2023/01/05 00:06:41;;;;;;;6.80;1.45;;;;;;;;;;6126785;23;19998;-77
2023/01/05 00:09:08;;;;;;;5.82;1.50;;;;;;;;;;6126546;23;20085;-76
2023/01/05 00:22:44;;;;;;;4.80;1.40;;;;;;;;;;6126433;23;20073;-77
2023/01/05 00:25:11;;;;;;;3.15;1.27;;;;;;;;;;6126427;23;20242;-77
2023/01/05 00:27:37;;;;;;;4.00;1.23;;;;;;;;;;6126902;23;19998;-78
2023/01/05 00:30:04;;;;;;;3.88;1.35;;;;;;;;;;6126403;23;20418;-76
2023/01/05 00:32:30;;;;;;;6.45;1.60;;;;;;;;;;6126651;23;19998;-77
2023/01/05 00:34:57;;;;;;;5.95;1.38;;;;;;;;;;6126415;23;20008;-78
2023/01/05 00:37:24;;;;;;;3.97;1.50;;;;;;;;;;6126381;23;20033;-76
2023/01/05 00:39:50;;;;;;;5.82;1.70;;;;;;;;;;6126373;23;20002;-77
2023/01/05 00:42:16;;;;;;;3.90;1.40;;;;;;;;;;6126401;23;20002;-78
2023/01/05 00:44:42;;;;;;;2.97;1.30;;;;;;;;;;6126300;23;20430;-77
2023/01/05 00:47:08;;;;;;;;;;;;;;;;;;6126843;23;20002;-76
2023/01/05 00:49:34;;;;;;;4.22;1.25;;;;;;;;;;6126375;23;19955;-76
2023/01/05 00:52:01;;;;;;;4.05;1.27;;;;;;;;;;6126562;23;20002;-77
2023/01/05 00:54:27;;;;;;;3.55;1.20;;;;;;;;;;6124677;23;20010;-78
2023/01/05 00:56:53;;;;;;;3.58;1.50;;;;;;;;;;6126566;23;20002;-77
2023/01/05 00:59:19;;;;;;;;;;;;;;;;;;6126932;23;20014;-77
2023/01/05 01:01:46;;;;;;;3.78;1.27;;;;;;;;;;6128474;23;19909;-78
2023/01/05 01:04:12;;;;;;;2.55;1.10;;;;;;;;;;6128189;23;20429;-77
2023/01/05 01:06:38;;;;;;;2.92;1.40;;;;;;;;;;6128283;23;19998;-77
2023/01/05 01:09:04;;;;;;;;;;;;;;;;;;6129133;23;20009;-77
2023/01/05 01:11:30;;;;;;;2.50;1.20;;;;;;;;;;6128287;23;19901;-78
2023/01/05 01:13:56;;;;;;;4.32;1.20;;;;;;;;;;6128291;23;20002;-77
2023/01/05 01:16:22;;;;;;;;;;;;;;;;;;6128635;23;20002;-76
2023/01/05 01:18:48;;;;;;;3.85;1.40;;;;;;;;;;6128157;23;19925;-77
2023/01/05 01:21:14;;;;;;;;;;;;;;;;;;6128984;23;20484;-77
2023/01/05 01:23:40;;;;;;;3.50;1.75;;;;;;;;;;6102256;23;19939;-77
2023/01/05 01:26:06;;;;;;;;;;;;;;;;;;6126923;23;20441;-77
2023/01/05 01:28:32;;;;;;;6.35;1.77;;;;;;;;;;6128128;23;19901;-77
2023/01/05 01:30:58;;;;;;;4.13;1.80;;;;;;;;;;6128544;23;20413;-77
2023/01/05 01:33:25;;;;;;;2.53;1.40;;;;;;;;;;6128004;23;20002;-77
2023/01/05 01:35:51;;;;;;;4.70;1.50;;;;;;;;;;6128166;23;20006;-76
2023/01/05 01:38:16;;;;;;;;;;;;;;;;;;6128486;23;20049;-77
2023/01/05 01:40:44;;;;;;;2.67;1.33;;;;;;;;;;6102025;23;19905;-77
2023/01/05 01:43:14;;;;;;;2.60;1.40;;;;;;;;;;6126329;23;20006;-77
2023/01/05 01:45:40;;;;;;;5.53;1.27;;;;;;;;;;6128014;23;20002;-77
2023/01/05 01:48:06;;;;;;;2.28;1.30;;;;;;;;;;6127875;23;20072;-78
2023/01/05 01:50:32;;;;;;;3.03;1.40;;;;;;;;;;6127885;23;20433;-77
2023/01/05 01:52:58;;;;;;;;;;;;;;;;;;6128259;23;20033;-77
2023/01/05 01:55:25;;;;;;;5.60;1.50;;;;;;;;;;6128007;23;19933;-76
2023/01/05 01:57:52;;;;;;;3.70;1.30;;;;;;;;;;6126552;23;20064;-77
2023/01/05 02:00:19;;;;;;;5.28;1.38;;;;;;;;;;6127677;23;20017;-77
2023/01/05 02:02:46;;;;;;;5.28;1.55;;;;;;;;;;6127844;23;20017;-77
2023/01/05 02:05:12;;;;;;;2.55;1.20;;;;;;;;;;6127655;23;20013;-77
2023/01/05 02:07:40;;;;;;;3.20;1.40;;;;;;;;;;6127718;23;19998;-77
2023/01/05 02:10:06;;;;;;;3.83;1.55;;;;;;;;;;6127492;23;20002;-77
2023/01/05 02:12:39;;;;;;;5.18;1.60;;;;;;;;;;6127474;23;20025;-77
2023/01/05 02:15:08;;;;;;;1.77;1.20;;;;;;;;;;6127608;23;20006;-77
2023/01/05 02:17:52;;;;;;;3.10;1.20;;;;;;;;;;6127638;23;20076;-77
2023/01/05 02:20:37;;;;;;;4.20;1.48;;;;;;;;;;6127629;23;20002;-77
2023/01/05 02:23:09;;;;;;;3.28;1.40;;;;;;;;;;6127616;23;20436;-77
2023/01/05 02:25:41;;;;;;;2.47;1.20;;;;;;;;;;6127541;23;20313;-77
2023/01/05 02:28:18;;;;;;;3.78;1.40;;;;;;;;;;6125979;23;20006;-76
2023/01/05 02:31:02;;;;;;;4.03;1.50;;;;;;;;;;6128242;23;20002;-77
2023/01/05 02:33:54;;;;;;;5.13;1.67;;;;;;;;;;6127535;23;20057;-77
2023/01/05 02:36:34;;;;;;;3.35;1.40;;;;;;;;;;6083319;23;20013;-76
2023/01/05 02:39:13;;;;;;;3.75;1.55;;;;;;;;;;6127736;23;20008;-77
2023/01/05 02:41:58;;;;;;;3.83;1.50;;;;;;;;;;6127555;23;20002;-76
2023/01/05 02:44:27;;;;;;;5.30;1.60;;;;;;;;;;6127669;23;20010;-76
2023/01/05 02:47:01;;;;;;;3.85;1.60;;;;;;;;;;6127400;23;19998;-76
2023/01/05 02:49:28;;;;;;;3.63;1.48;;;;;;;;;;6127449;23;20080;-77
2023/01/05 02:51:55;;;;;;;4.63;1.52;;;;;;;;;;6127316;23;20006;-76
2023/01/05 02:54:23;;;;;;;5.22;1.33;;;;;;;;;;6127220;23;20075;-77
2023/01/05 02:57:09;;;;;;;3.25;1.40;;;;;;;;;;6127191;23;20451;-77
2023/01/05 02:59:43;;;;;;;4.05;1.27;;;;;;;;;;6125258;23;20022;-77
2023/01/05 03:02:12;;;;;;;4.15;1.48;;;;;;;;;;6127228;23;20501;-77
2023/01/05 03:04:41;;;;;;;6.07;1.63;;;;;;;;;;6127182;23;20017;-76
2023/01/05 03:07:12;;;;;;;7.07;1.60;;;;;;;;;;6127090;23;20005;-77
2023/01/05 03:09:39;;;;;;;3.88;1.23;;;;;;;;;;6127146;23;20429;-77
2023/01/05 03:14:56;;;;;;;5.45;1.40;;;;;;;;;;6126965;23;20036;-76
2023/01/05 03:17:28;;;;;;;7.63;1.70;;;;;;;;;;6127083;23;20503;-77
2023/01/05 03:19:55;;;;;;;6.38;1.45;;;;;;;;;;6127207;23;20037;-77
2023/01/05 03:36:51;;;;;;;6.95;1.75;;;;;;;;;;6126514;23;20013;-78
2023/01/05 03:39:18;;;;;;;6.05;1.50;;;;;;;;;;6126830;23;20077;-76
2023/01/05 03:41:45;;;;;;;6.90;1.27;;;;;;;;;;6127064;23;20010;-77
2023/01/05 03:44:11;;;;;;;6.05;1.40;;;;;;;;;;6126812;23;20006;-77
2023/01/05 03:46:39;;;;;;;6.13;1.48;;;;;;;;;;6126794;23;20002;-78
2023/01/05 03:49:05;;;;;;;9.35;1.63;;;;;;;;;;6126726;23;19998;-76
2023/01/05 03:51:31;;;;;;;8.07;2.13;;;;;;;;;;6125226;23;20002;-76
2023/01/05 03:53:57;;;;;;;;;;;;;;;;;;6126884;23;20006;-77
2023/01/05 03:56:23;;;;;;;5.60;1.42;;;;;;;;;;6126729;23;19984;-77
2023/01/05 03:58:49;;;;;;;;;;;;;;;;;;6127221;23;20021;-77
2023/01/05 04:01:15;;;;;;;4.25;1.52;;;;;;;;;;6127228;23;19924;-77
2023/01/05 04:03:41;;;;;;;;;;;;;;;;;;6127145;23;20381;-77
2023/01/05 04:06:07;;;;;;;7.78;1.70;;;;;;;;;;6126532;23;19940;-77
2023/01/05 04:08:33;;;;;;;7.07;1.77;;;;;;;;;;6126677;23;20073;-77
2023/01/05 04:10:59;;;;;;;;;;;;;;;;;;6127085;23;20002;-77
2023/01/05 04:13:25;;;;;;;9.20;2.22;;;;;;;;;;6100656;23;19932;-76
2023/01/05 04:15:51;;;;;;;;;;;;;;;;;;6125473;23;20372;-77
2023/01/05 04:18:17;;;;;;;6.82;1.60;;;;;;;;;;6126768;23;19901;-76
2023/01/05 04:20:43;;;;;;;;;;;;;;;;;;6125502;23;20010;-76
2023/01/05 04:23:09;;;;;;;6.70;1.70;;;;;;;;;;6126527;23;19932;-76
2023/01/05 04:25:35;;;;;;;;;;;;;;;;;;6127173;23;20056;-76
2023/01/05 04:28:01;;;;;;;6.97;1.90;;;;;;;;;;6126777;23;19901;-76
2023/01/05 04:30:27;;;;;;;;;;;;;;;;;;6127026;23;19998;-76
2023/01/05 04:32:53;;;;;;;6.90;1.60;;;;;;;;;;6126499;23;19908;-76
2023/01/05 04:35:19;;;;;;;;;;;;;;;;;;6126856;23;20006;-77
2023/01/05 04:37:45;;;;;;;7.63;1.60;;;;;;;;;;6126663;23;19924;-76
2023/01/05 04:40:11;;;;;;;;;;;;;;;;;;6126949;23;20006;-75
2023/01/05 04:42:37;;;;;;;8.40;1.67;;;;;;;;;;6126488;23;20286;-77
2023/01/05 04:45:03;;;;;;;;;;;;;;;;;;6127082;23;20006;-76
2023/01/05 04:47:29;;;;;;;5.95;1.40;;;;;;;;;;6126687;23;20212;-77
2023/01/05 04:49:55;;;;;;;7.93;1.30;;;;;;;;;;6126363;23;20002;-76
2023/01/05 04:52:21;;;;;;;;;;;;;;;;;;6126760;23;20002;-77
2023/01/05 04:54:47;;;;;;;3.78;0.90;;;;;;;;;;6126558;23;19947;-77
2023/01/05 04:57:13;;;;;;;;;;;;;;;;;;6126802;23;20006;-77
2023/01/05 04:59:39;;;;;;;3.20;1.13;;;;;;;;;;6126131;23;19936;-77
2023/01/05 05:02:05;;;;;;;;;;;;;;;;;;6126804;23;20029;-76
2023/01/05 05:04:31;;;;;;;3.53;1.17;;;;;;;;;;6126240;23;20363;-77
2023/01/05 05:06:57;;;;;;;;;;;;;;;;;;6126747;23;20025;-77
2023/01/05 05:09:23;;;;;;;6.18;1.20;;;;;;;;;;6126260;23;19903;-76
2023/01/05 05:11:49;;;;;;;;;;;;;;;;;;6126875;23;19998;-77
2023/01/05 05:14:15;;;;;;;4.43;1.10;;;;;;;;;;6126480;23;19934;-78
2023/01/05 05:16:41;;;;;;;;;;;;;;;;;;6126778;23;20013;-76
2023/01/05 05:19:09;;;;;;;7.15;1.42;;;;;;;;;;6100324;23;19904;-77
2023/01/05 05:21:35;;;;;;;10.40;1.80;;;;;;;;;;6126385;23;20433;-77
2023/01/05 05:24:01;;;;;;;;;;;;;;;;;;6126583;23;20012;-76
2023/01/05 05:26:27;;;;;;;11.63;2.00;;;;;;;;;;6126186;23;20305;-77
2023/01/05 05:28:53;;;;;;;10.45;1.88;;;;;;;;;;6126395;23;20006;-76
2023/01/05 05:31:19;;;;;;;;;;;;;;;;;;6126872;23;20012;-77
2023/01/05 05:33:45;;;;;;;12.73;1.90;;;;;;;;;;6126239;23;19905;-76
2023/01/05 05:36:11;;;;;;;;;;;;;;;;;;6126799;23;20069;-76
2023/01/05 05:38:37;;;;;;;18.90;2.72;;;;;;;;;;6126088;23;19928;-77
2023/01/05 05:41:03;;;;;;;;;;;;;;;;;;6126594;23;20008;-77
2023/01/05 05:43:29;;;;;;;16.30;2.60;;;;;;;;;;6126175;23;19924;-76
2023/01/05 05:45:55;;;;;;;;;;;;;;;;;;6127762;23;20030;-77
2023/01/05 05:48:21;;;;;;;11.82;2.00;;;;;;;;;;6128201;23;19901;-76
2023/01/05 05:50:47;;;;;;;;;;;;;;;;;;6128397;23;20079;-77
2023/01/05 05:53:13;;;;;;;15.23;2.50;;;;;;;;;;6128228;23;20236;-77
2023/01/05 05:55:39;;;;;;;16.30;2.97;;;;;;;;;;6128304;23;20045;-76
2023/01/05 05:58:05;;;;;;;;;;;;;;;;;;6128608;23;20392;-76
2023/01/05 06:00:31;;;;;;;19.92;2.80;;;;;;;;;;6127307;23;19908;-76
2023/01/05 06:02:57;;;;;;;;;;;;;;;;;;6128193;23;20073;-77
2023/01/05 06:05:23;;;;;;;17.90;2.58;;;;;;;;;;6127707;23;20335;-77
2023/01/05 06:07:49;;;;;;;;;;;;;;;;;;6126710;23;20005;-76
2023/01/05 06:10:15;;;;;;;21.38;3.08;;;;;;;;;;6127800;23;20339;-77
2023/01/05 06:12:41;;;;;;;;;;;;;;;;;;6128324;23;20002;-76
2023/01/05 06:15:07;;;;;;;17.95;3.20;;;;;;;;;;6127649;23;20288;-77
2023/01/05 06:17:33;;;;;;;19.83;2.97;;;;;;;;;;6127737;23;20085;-76
2023/01/05 06:19:59;;;;;;;;;;;;;;;;;;6128156;23;20006;-76
2023/01/05 06:22:25;;;;;;;21.65;3.08;;;;;;;;;;6127711;23;20320;-76
2023/01/05 06:24:51;;;;;;;;;;;;;;;;;;6128041;23;20061;-77
2023/01/05 06:27:17;;;;;;;16.45;2.75;;;;;;;;;;6128101;23;20268;-77
2023/01/05 06:29:43;;;;;;;;;;;;;;;;;;6128023;23;20025;-76
2023/01/05 06:32:09;;;;;;;20.13;3.03;;;;;;;;;;6127558;23;20267;-77
2023/01/05 06:34:35;;;;;;;19.38;3.28;;;;;;;;;;6127543;23;20010;-77
2023/01/05 06:37:01;;;;;;;;;;;;;;;;;;6126406;23;20006;-76
2023/01/05 06:39:27;;;;;;;23.20;3.30;;;;;;;;;;6127662;23;19936;-77
2023/01/05 06:41:54;;;;;;;22.85;3.55;;;;;;;;;;6127709;23;20061;-77
2023/01/05 06:44:20;;;;;;;;;;;;;;;;;;6127909;23;20061;-76
2023/01/05 06:46:46;;;;;;;20.02;3.22;;;;;;;;;;6127362;23;19901;-77
2023/01/05 06:49:13;;;;;;;;;;;;;;;;;;6125979;23;20413;-76
2023/01/05 06:51:39;;;;;;;17.38;3.03;;;;;;;;;;6127279;23;19908;-77
2023/01/05 06:54:06;;;;;;;25.98;3.65;;;;;;;;;;6126978;23;20002;-77
2023/01/05 06:56:32;;;;;;;21.50;3.20;;;;;;;;;;6127057;23;20026;-76
2023/01/05 06:58:58;;;;;;;19.27;3.03;;;;;;;;;;6126852;23;20060;-77
2023/01/05 07:01:24;;;;;;;;;;;;;;;;;;6127705;23;20002;-76
2023/01/05 07:03:50;;;;;;;26.08;3.28;;;;;;;;;;6127427;23;19935;-77
2023/01/05 07:06:16;;;;;;;;;;;;;;;;;;6127668;23;20010;-77
2023/01/05 07:08:42;;;;;;;18.00;2.80;;;;;;;;;;6127229;23;19990;-77
2023/01/05 07:11:08;;;;;;;21.38;3.83;;;;;;;;;;6127103;23;20002;-76
2023/01/05 07:13:35;;;;;;;;;;;;;;;;;;6127685;23;20507;-76
2023/01/05 07:16:01;;;;;;;23.83;3.00;;;;;;;;;;6127208;23;19901;-76
2023/01/05 07:18:27;;;;;;;;;;;;;;;;;;6127618;23;20012;-77
2023/01/05 07:20:53;;;;;;;22.10;3.72;;;;;;;;;;6127041;23;19936;-76
2023/01/05 07:23:19;;;;;;;;;;;;;;;;;;6128088;23;20009;-77
2023/01/05 07:25:45;;;;;;;14.30;2.47;;;;;;;;;;6127137;23;20239;-76
2023/01/05 07:28:11;;;;;;;;;;;;;;;;;;6125934;23;20010;-76
2023/01/05 07:30:37;;;;;;;20.38;2.90;;;;;;;;;;6127106;23;19901;-76
2023/01/05 07:33:03;;;;;;;;;;;;;;;;;;6127387;23;20002;-77
2023/01/05 07:35:30;;;;;;;20.08;3.15;;;;;;;;;;6100866;23;20027;-77
2023/01/05 07:37:55;;;;;;;;;;;;;;;;;;6127347;23;20006;-76
2023/01/05 07:40:22;;;;;;;16.83;2.60;;;;;;;;;;6126890;23;20374;-77
2023/01/05 07:42:52;;;;;;;15.40;3.00;;;;;;;;;;6126900;23;20445;-77
2023/01/05 07:45:18;;;;;;;16.95;3.05;;;;;;;;;;6127168;23;20035;-78
2023/01/05 07:47:44;;;;;;;23.73;3.50;;;;;;;;;;6127029;23;20005;-77
2023/01/05 07:50:11;;;;;;;20.77;3.60;;;;;;;;;;6126792;23;20006;-76
2023/01/05 07:52:38;;;;;;;;;;;;;;;;;;6127154;23;19998;-77
2023/01/05 07:55:04;;;;;;;18.55;3.20;;;;;;;;;;6126769;23;20217;-76
2023/01/05 07:57:30;;;;;;;19.67;3.20;;;;;;;;;;6126865;23;20002;-76
2023/01/05 07:59:56;;;;;;;16.73;2.70;;;;;;;;;;6126495;23;20014;-76
2023/01/05 08:02:22;;;;;;;19.98;3.00;;;;;;;;;;6126682;23;20381;-77
2023/01/05 08:04:48;;;;;;;20.63;3.53;;;;;;;;;;6126555;23;20017;-77
2023/01/05 08:07:14;;;;;;;;;;;;;;;;;;6127397;23;20030;-77
2023/01/05 08:12:32;;;;;;;19.42;3.17;;;;;;;;;;6126415;23;20016;-77
2023/01/05 08:15:00;;;;;;;20.05;3.38;;;;;;;;;;6126573;23;20322;-77
2023/01/05 08:17:27;;;;;;;19.08;2.90;;;;;;;;;;6124984;23;20345;-76
2023/01/05 08:19:52;;;;;;;;;;;;;;;;;;6125555;23;20010;-77
2023/01/05 08:22:19;;;;;;;22.25;2.90;;;;;;;;;;6126576;23;19952;-77
2023/01/05 08:24:45;;;;;;;20.08;3.92;;;;;;;;;;6126647;23;20013;-77
2023/01/05 08:27:11;;;;;;;;;;;;;;;;;;6127249;23;20333;-77
2023/01/05 08:29:37;;;;;;;20.42;3.00;;;;;;;;;;6126701;23;19901;-76
2023/01/05 08:32:03;;;;;;;24.30;3.58;;;;;;;;;;6126488;23;20513;-77
2023/01/05 08:34:29;;;;;;;17.33;3.20;;;;;;;;;;6126530;23;20073;-76
2023/01/05 08:36:55;;;;;;;26.17;3.28;;;;;;;;;;6126858;23;20010;-77
2023/01/05 08:39:21;;;;;;;;;;;;;;;;;;6127229;23;20013;-76
2023/01/05 08:41:47;;;;;;;21.65;4.13;;;;;;;;;;6126430;23;19924;-76
2023/01/05 08:44:13;;;;;;;;;;;;;;;;;;6126862;23;20009;-76
2023/01/05 08:46:39;;;;;;;20.08;3.45;;;;;;;;;;6126518;23;19901;-76
2023/01/05 08:49:06;;;;;;;16.33;2.75;;;;;;;;;;6126417;23;20006;-77
2023/01/05 08:51:33;;;;;;;20.38;3.45;;;;;;;;;;6126383;23;20006;-77
2023/01/05 08:53:59;;;;;;;21.88;3.20;;;;;;;;;;6126427;23;20388;-77
2023/01/05 08:56:26;;;;;;;20.30;3.10;;;;;;;;;;6126354;23;20006;-77
2023/01/05 08:58:57;;;;;;;25.42;3.53;;;;;;;;;;6114547;23;20022;-77
2023/01/05 09:01:24;;;;;;;21.77;3.33;;;;;;;;;;6068389;23;20003;-77
2023/01/05 09:03:50;;;;;;;18.42;3.45;;;;;;;;;;6068452;23;20029;-77
2023/01/05 09:06:17;;;;;;;19.80;3.75;;;;;;;;;;6068290;23;20093;-77
2023/01/05 09:08:45;;;;;;;20.77;3.92;;;;;;;;;;6068371;23;19999;-76
2023/01/05 09:11:12;;;;;;;15.85;3.67;;;;;;;;;;6068660;23;20430;-77
2023/01/05 09:13:39;;;;;;;21.67;3.70;;;;;;;;;;6068348;23;20335;-77
2023/01/05 09:16:06;;;;;;;19.52;2.92;;;;;;;;;;6068403;23;20007;-77
2023/01/05 09:18:32;;;;;;;25.15;4.03;;;;;;;;;;6068291;23;20025;-77
2023/01/05 09:20:59;;;;;;;19.10;3.35;;;;;;;;;;6069487;23;20078;-77
2023/01/05 09:23:25;;;;;;;14.55;2.78;;;;;;;;;;6068770;23;20034;-77
2023/01/05 09:25:52;;;;;;;16.30;2.65;;;;;;;;;;6068484;23;20530;-76
2023/01/05 09:28:25;;;;;;;17.83;3.22;;;;;;;;;;6070199;23;19999;-77
2023/01/05 09:30:51;;;;;;;17.25;3.35;;;;;;;;;;6070029;23;20034;-77
2023/01/05 09:33:17;;;;;;;18.63;3.30;;;;;;;;;;6070381;23;20006;-77
2023/01/05 09:35:43;;;;;;;15.63;2.72;;;;;;;;;;6070176;23;20029;-76
2023/01/05 09:38:09;;;;;;;19.40;2.75;;;;;;;;;;6070143;23;20009;-78
2023/01/05 09:40:41;;;;;;;17.45;3.20;;;;;;;;;;6070030;23;20007;-77
2023/01/05 09:43:11;;;;;;;19.67;3.10;;;;;;;;;;6070094;23;20006;-77
2023/01/05 09:45:37;;;;;;;23.08;3.58;;;;;;;;;;6068332;23;20058;-77
2023/01/05 09:48:03;;;;;;;17.63;2.83;;;;;;;;;;6069930;23;20003;-76
2023/01/05 09:50:29;;;;;;;21.45;3.30;;;;;;;;;;6070103;23;19999;-76
2023/01/05 09:52:57;;;;;;;17.50;3.45;;;;;;;;;;6069909;23;20010;-77
2023/01/05 09:55:24;;;;;;;20.10;6.93;;;;;;;;;;6069944;23;20007;-77
2023/01/05 09:58:03;;;;;;;19.52;4.75;;;;;;;;;;6069920;23;20054;-77
2023/01/05 10:00:29;;;;;;;17.48;4.15;;;;;;;;;;6118413;23;20013;-76
2023/01/05 10:03:03;;;;;;;20.88;6.07;;;;;;;;;;6127990;23;20006;-77
2023/01/05 10:05:30;;;;;;;15.70;3.40;;;;;;;;;;6127807;23;20006;-77
2023/01/05 10:08:04;;;;;;;16.20;3.78;;;;;;;;;;6127865;23;20055;-76
2023/01/05 10:13:01;;;;;;;16.52;3.00;;;;;;;;;;6127800;23;20073;-78
2023/01/05 10:13:38;;;;;;;13.57;2.88;;;;;;;;;;6127414;23;20032;-77
2023/01/05 10:16:04;;;;;;;13.60;2.92;;;;;;;;;;6127854;23;20105;-77
2023/01/05 10:18:31;;;;;;;9.75;3.00;;;;;;;;;;6127695;23;20037;-77
2023/01/05 10:21:09;;;;;;;17.05;2.78;;;;;;;;;;6127795;23;20025;-77
2023/01/05 10:23:54;;;;;;;14.93;2.65;;;;;;;;;;6128015;23;20433;-76
2023/01/05 10:26:20;;;;;;;;;;;;;;;;;;6126493;23;20006;-76
2023/01/05 10:28:53;;;;;;;15.25;2.83;;;;;;;;;;6101593;23;19948;-76
2023/01/05 10:31:22;;;;;;;13.07;2.45;;;;;;;;;;6125898;23;20002;-76
2023/01/05 10:33:52;;;;;;;11.20;2.15;;;;;;;;;;6127220;23;20009;-76
2023/01/05 10:36:24;;;;;;;13.05;2.15;;;;;;;;;;6127907;23;20005;-76
2023/01/05 10:38:59;;;;;;;15.85;2.90;;;;;;;;;;6127872;23;20073;-77
2023/01/05 10:41:33;;;;;;;16.35;3.05;;;;;;;;;;6127478;23;20076;-77
2023/01/05 10:44:02;;;;;;;12.43;2.15;;;;;;;;;;6128002;23;20013;-77
2023/01/05 10:46:28;;;;;;;12.80;2.40;;;;;;;;;;6127555;23;20002;-77
2023/01/05 10:48:55;;;;;;;13.57;2.42;;;;;;;;;;6128115;23;20068;-75
2023/01/05 10:51:23;;;;;;;13.98;2.50;;;;;;;;;;6127475;23;20434;-76
2023/01/05 10:53:49;;;;;;;14.48;2.53;;;;;;;;;;6127339;23;19998;-77
2023/01/05 10:56:22;;;;;;;13.25;2.65;;;;;;;;;;6127456;23;20006;-76
2023/01/05 10:58:48;;;;;;;14.70;2.72;;;;;;;;;;6127328;23;20013;-77
2023/01/05 11:01:22;;;;;;;12.63;2.67;;;;;;;;;;6127558;23;20037;-76
2023/01/05 11:03:49;;;;;;;14.77;2.90;;;;;;;;;;6127353;23;20377;-77
2023/01/05 11:06:29;;;;;;;14.68;2.70;;;;;;;;;;6125574;23;20018;-77
2023/01/05 11:09:05;;;;;;;18.30;2.92;;;;;;;;;;6127191;23;20002;-76
2023/01/05 11:11:31;;;;;;;17.25;2.75;;;;;;;;;;6127338;23;20057;-77
2023/01/05 11:13:58;;;;;;;17.42;2.53;;;;;;;;;;6127191;23;20061;-76
2023/01/05 11:16:32;;;;;;;15.10;2.28;;;;;;;;;;6127308;23;20006;-76
2023/01/05 11:19:03;;;;;;;15.57;2.95;;;;;;;;;;6127352;23;20041;-78
2023/01/05 11:21:35;;;;;;;11.57;2.33;;;;;;;;;;6127189;23;20037;-77
2023/01/05 11:24:02;;;;;;;15.32;2.33;;;;;;;;;;6127129;23;20009;-77
2023/01/05 11:26:31;;;;;;;13.45;2.50;;;;;;;;;;6126892;23;20026;-76
2023/01/05 11:29:00;;;;;;;10.35;2.10;;;;;;;;;;6124871;23;20006;-77
2023/01/05 11:31:35;;;;;;;12.73;2.60;;;;;;;;;;6127242;23;20023;-77
2023/01/05 11:34:08;;;;;;;12.90;2.37;;;;;;;;;;6127065;23;20021;-76
2023/01/05 11:36:34;;;;;;;11.23;1.90;;;;;;;;;;6127019;23;20305;-76
2023/01/05 11:39:00;;;;;;;16.63;2.78;;;;;;;;;;6126967;23;20073;-77
2023/01/05 11:41:27;;;;;;;14.07;2.70;;;;;;;;;;6126948;23;20002;-76
2023/01/05 11:43:53;;;;;;;13.23;2.65;;;;;;;;;;6127062;23;20006;-77
2023/01/05 11:46:20;;;;;;;12.98;2.70;;;;;;;;;;6127048;23;20006;-77
2023/01/05 11:48:50;;;;;;;22.15;8.73;;;;;;;;;;6126972;23;19998;-77
2023/01/05 11:51:33;;;;;;;15.85;3.30;;;;;;;;;;6126866;23;20006;-77
2023/01/05 11:53:59;;;;;;;15.68;2.95;;;;;;;;;;6126926;23;20451;-77
2023/01/05 11:56:26;;;;;;;13.82;2.40;;;;;;;;;;6126871;23;20010;-77
2023/01/05 11:58:53;;;;;;;11.15;2.30;;;;;;;;;;6127104;23;20006;-77
2023/01/05 12:01:26;;;;;;;15.25;2.78;;;;;;;;;;6126761;23;20006;-78
2023/01/05 12:04:05;;;;;;;13.98;2.60;;;;;;;;;;6126805;23;20351;-77
2023/01/05 12:06:31;;;;;;;11.07;2.10;;;;;;;;;;6126658;23;20006;-77
2023/01/05 12:08:57;;;;;;;;;;;;;;;;;;6127153;23;20002;-76
2023/01/05 12:11:23;;;;;;;14.80;2.42;;;;;;;;;;6126848;23;19944;-76
2023/01/05 12:14:05;;;;;;;13.35;2.60;;;;;;;;;;6126756;23;20068;-77
2023/01/05 12:16:44;;;;;;;13.13;2.60;;;;;;;;;;6126665;23;20006;-77
2023/01/05 12:19:24;;;;;;;12.10;2.15;;;;;;;;;;6127029;23;20006;-77
2023/01/05 12:21:58;;;;;;;14.73;2.58;;;;;;;;;;6126911;23;20452;-78
2023/01/05 12:24:35;;;;;;;13.25;2.47;;;;;;;;;;6126619;23;20418;-78
2023/01/05 12:27:08;;;;;;;14.80;3.10;;;;;;;;;;6127039;23;20073;-77
2023/01/05 12:29:34;;;;;;;13.90;2.53;;;;;;;;;;6126847;23;20480;-77
2023/01/05 12:32:03;;;;;;;12.75;2.22;;;;;;;;;;6126481;23;20077;-77
2023/01/05 12:34:38;;;;;;;12.50;2.35;;;;;;;;;;6127216;23;20006;-77
2023/01/05 12:37:08;;;;;;;11.48;2.38;;;;;;;;;;6126554;23;20069;-77
2023/01/05 12:39:43;;;;;;;12.02;2.40;;;;;;;;;;6126750;23;20013;-77
2023/01/05 12:42:22;;;;;;;10.57;2.35;;;;;;;;;;6126516;23;20029;-77
2023/01/05 12:45:17;;;;;;;10.55;2.40;;;;;;;;;;6126427;23;20006;-77
2023/01/05 12:47:55;;;;;;;16.65;2.35;;;;;;;;;;6023750;23;20035;-77
2023/01/05 12:50:22;;;;;;;12.95;2.28;;;;;;;;;;6126563;23;20084;-77
2023/01/05 12:52:49;;;;;;;15.43;2.30;;;;;;;;;;6126227;23;20001;-76
2023/01/05 12:55:21;;;;;;;13.02;3.08;;;;;;;;;;6127619;23;20063;-77
2023/01/05 12:57:53;;;;;;;13.07;2.50;;;;;;;;;;6129917;23;20006;-77
2023/01/05 13:00:20;;;;;;;9.57;1.90;;;;;;;;;;6129457;23;20032;-77
2023/01/05 13:02:57;;;;;;;12.30;2.53;;;;;;;;;;6129636;23;20029;-76
2023/01/05 13:05:29;;;;;;;13.00;2.10;;;;;;;;;;6129721;23;20033;-77
2023/01/05 13:07:58;;;;;;;10.88;1.95;;;;;;;;;;6129991;23;20057;-77
2023/01/05 13:10:39;;;;;;;13.45;2.35;;;;;;;;;;6129738;23;20122;-77
2023/01/05 13:13:10;;;;;;;12.85;2.33;;;;;;;;;;6127809;23;20009;-77
2023/01/05 13:15:52;;;;;;;12.52;2.28;;;;;;;;;;6129987;23;20002;-77
2023/01/05 13:18:18;;;;;;;14.77;2.38;;;;;;;;;;6129903;23;20009;-75
2023/01/05 13:20:56;;;;;;;10.90;2.40;;;;;;;;;;6129709;23;20016;-76
2023/01/05 13:23:28;;;;;;;9.43;1.80;;;;;;;;;;6130241;23;20440;-77
2023/01/05 13:25:57;;;;;;;13.98;2.45;;;;;;;;;;6129627;23;20012;-77
2023/01/05 13:28:24;;;;;;;10.50;2.10;;;;;;;;;;6129823;23;20060;-76
2023/01/05 13:31:09;;;;;;;10.02;2.10;;;;;;;;;;6129596;23;20088;-77
2023/01/05 13:33:38;;;;;;;15.27;2.63;;;;;;;;;;6130014;23;20054;-76
2023/01/05 13:36:13;;;;;;;12.95;2.20;;;;;;;;;;6129919;23;20209;-76
2023/01/05 13:38:58;;;;;;;11.60;2.45;;;;;;;;;;6129561;23;20002;-77
2023/01/05 13:41:41;;;;;;;9.32;2.13;;;;;;;;;;6130123;23;20006;-76
2023/01/05 13:44:13;;;;;;;12.85;2.20;;;;;;;;;;6129771;23;20002;-76
2023/01/05 13:46:50;;;;;;;8.20;1.80;;;;;;;;;;6129379;23;20073;-76
2023/01/05 13:49:38;;;;;;;9.18;1.98;;;;;;;;;;6129482;23;20491;-76
2023/01/05 13:52:42;;;;;;;16.70;2.30;;;;;;;;;;6129778;23;20005;-76
2023/01/05 13:55:11;;;;;;;13.95;2.20;;;;;;;;;;6011828;23;20019;-77
2023/01/05 13:57:38;;;;;;;10.30;2.17;;;;;;;;;;6012021;23;20011;-77
2023/01/05 14:00:20;;;;;;;9.73;1.92;;;;;;;;;;6070185;23;20334;-77
2023/01/05 14:02:54;;;;;;;12.35;2.03;;;;;;;;;;6127312;23;20010;-76
2023/01/05 14:05:29;;;;;;;10.43;1.80;;;;;;;;;;6129483;23;20511;-76
2023/01/05 14:07:56;;;;;;;9.00;1.92;;;;;;;;;;6126332;23;20012;-76
2023/01/05 14:10:25;;;;;;;8.88;1.90;;;;;;;;;;6127704;23;20457;-76
2023/01/05 14:12:54;;;;;;;9.98;1.88;;;;;;;;;;6127762;23;19997;-77
2023/01/05 14:15:41;;;;;;;8.95;1.70;;;;;;;;;;6127656;23;20001;-77
2023/01/05 14:18:11;;;;;;;10.15;2.05;;;;;;;;;;6128398;23;20010;-76
2023/01/05 14:20:40;;;;;;;10.80;2.05;;;;;;;;;;6127602;23;20006;-76
2023/01/05 14:23:21;;;;;;;15.00;1.95;;;;;;;;;;6126210;23;20009;-76
2023/01/05 14:25:53;;;;;;;10.80;2.03;;;;;;;;;;6127551;23;20077;-76
2023/01/05 14:28:34;;;;;;;34.22;15.48;;;;;;;;;;6126143;23;20009;-76
2023/01/05 14:31:13;;;;;;;26.00;12.13;;;;;;;;;;6127623;23;20002;-76
2023/01/05 14:33:58;;;;;;;22.80;9.15;;;;;;;;;;6101565;23;20005;-76
2023/01/05 14:36:28;;;;;;;16.88;7.40;;;;;;;;;;6128079;23;20022;-77
2023/01/05 14:38:54;;;;;;;12.38;3.60;;;;;;;;;;6127696;23;20009;-78
2023/01/05 14:41:24;;;;;;;10.15;2.03;;;;;;;;;;6127619;23;20037;-77
2023/01/05 14:43:58;;;;;;;11.15;2.58;;;;;;;;;;6127598;23;20010;-78
2023/01/05 14:46:26;;;;;;;10.00;1.90;;;;;;;;;;6127385;23;20328;-77
2023/01/05 14:49:07;;;;;;;7.82;2.28;;;;;;;;;;6127337;23;20002;-77
2023/01/05 14:51:34;;;;;;;9.52;1.90;;;;;;;;;;6127466;23;20449;-77
2023/01/05 14:54:04;;;;;;;8.32;2.00;;;;;;;;;;6127252;23;20025;-77
2023/01/05 14:56:31;;;;;;;6.50;1.90;;;;;;;;;;6127921;23;20322;-78
2023/01/05 14:59:01;;;;;;;9.50;2.10;;;;;;;;;;6127146;23;20049;-76
2023/01/05 15:01:33;;;;;;;6.93;1.50;;;;;;;;;;6127505;23;20013;-77
2023/01/05 15:04:18;;;;;;;7.78;1.52;;;;;;;;;;6127404;23;20429;-76
2023/01/05 15:06:59;;;;;;;7.50;1.83;;;;;;;;;;6127416;23;20065;-76
2023/01/05 15:09:44;;;;;;;7.68;1.70;;;;;;;;;;6127144;23;20010;-77
2023/01/05 15:12:28;;;;;;;9.93;1.80;;;;;;;;;;6127242;23;20018;-77
2023/01/05 15:15:02;;;;;;;11.50;2.10;;;;;;;;;;6127309;23;20333;-76
2023/01/05 15:17:35;;;;;;;11.00;2.28;;;;;;;;;;6127110;23;20217;-77
2023/01/05 15:20:19;;;;;;;9.00;1.77;;;;;;;;;;6126946;23;20444;-77
2023/01/05 15:23:15;;;;;;;11.93;2.00;;;;;;;;;;6127560;23;20005;-76
2023/01/05 15:25:45;;;;;;;9.20;2.05;;;;;;;;;;6024173;23;20399;-77
2023/01/05 15:28:29;;;;;;;6.57;1.80;;;;;;;;;;6127214;23;19997;-77
2023/01/05 15:31:12;;;;;;;12.60;2.20;;;;;;;;;;6125204;23;20064;-76
2023/01/05 15:33:38;;;;;;;10.55;2.40;;;;;;;;;;6127014;23;20025;-77
2023/01/05 15:36:05;;;;;;;9.70;2.08;;;;;;;;;;6126933;23;20049;-77
2023/01/05 15:38:43;;;;;;;10.95;2.10;;;;;;;;;;6127265;23;20009;-76